createdAt,value
2019-05-03T00:02:08.545Z,92.30
2019-05-03T00:07:13.106Z,89.34
2019-05-03T00:12:17.197Z,86.21
2019-05-03T00:17:22.015Z,84.59
2019-05-03T00:22:26.120Z,83.58
2019-05-03T00:27:32.136Z,81.73
2019-05-03T00:32:36.107Z,80.88
2019-05-03T00:37:41.965Z,80.05
2019-05-03T00:42:46.047Z,79.88
2019-05-03T00:47:50.108Z,77.90
2019-05-03T00:52:54.189Z,77.26
2019-05-03T00:57:58.221Z,76.72
2019-05-03T01:03:02.598Z,76.48
2019-05-03T01:08:06.708Z,77.17
2019-05-03T01:13:12.366Z,77.25
2019-05-03T01:18:17.886Z,78.15
2019-05-03T01:23:22.070Z,78.34
2019-05-03T01:28:26.409Z,77.46
2019-05-03T01:33:32.142Z,76.39
2019-05-03T01:38:36.386Z,75.48
2019-05-03T01:43:41.838Z,75.79
2019-05-03T01:48:46.034Z,75.94
2019-05-03T01:53:52.214Z,76.28
2019-05-03T01:58:56.283Z,77.40
2019-05-03T02:04:00.304Z,79.07
2019-05-03T02:09:06.519Z,77.84
2019-05-03T02:14:12.232Z,77.52
2019-05-03T02:19:16.515Z,75.96
2019-05-03T02:24:22.073Z,75.63
2019-05-03T02:29:26.260Z,73.90
2019-05-03T02:34:32.717Z,72.80
2019-05-03T02:39:36.191Z,71.87
2019-05-03T02:44:40.205Z,70.15
2019-05-03T02:49:45.597Z,69.17
2019-05-03T02:54:50.113Z,67.58
2019-05-03T02:59:54.939Z,67.33
2019-05-03T03:04:59.515Z,67.25
2019-05-03T03:10:05.433Z,67.10
2019-05-03T03:15:10.021Z,66.77
2019-05-03T03:20:16.136Z,67.00
2019-05-03T03:25:25.867Z,67.16
2019-05-03T03:31:18.209Z,68.54
2019-05-03T03:36:48.583Z,68.24
2019-05-03T03:41:28.852Z,68.78
2019-05-03T03:46:36.307Z,69.21
2019-05-03T03:51:41.171Z,68.06
2019-05-03T03:56:59.400Z,68.00
2019-05-03T04:01:56.056Z,67.47
2019-05-03T04:07:01.482Z,67.47
2019-05-03T04:12:06.367Z,68.49
2019-05-03T04:17:10.518Z,68.74
2019-05-03T04:22:16.448Z,68.84
2019-05-03T04:27:26.995Z,68.64
2019-05-03T04:32:29.219Z,68.69
2019-05-03T04:37:35.976Z,67.77
2019-05-03T04:42:39.631Z,66.41
2019-05-03T04:47:46.431Z,58.18
2019-05-03T04:52:52.737Z,52.48
2019-05-03T04:58:00.826Z,52.47
2019-05-03T05:03:06.823Z,55.42
2019-05-03T05:08:10.849Z,59.24
2019-05-03T05:13:15.732Z,48.01
2019-05-03T05:18:20.174Z,60.88
2019-05-03T05:23:25.120Z,60.88
2019-05-03T05:28:38.876Z,66.10
2019-05-03T05:33:44.620Z,64.30
2019-05-03T05:38:48.819Z,53.88
2019-05-03T05:43:54.843Z,44.98
2019-05-03T05:48:58.603Z,43.58
2019-05-03T05:54:02.592Z,38.38
2019-05-03T05:59:06.931Z,40.64
2019-05-03T06:04:11.168Z,38.10
2019-05-03T06:09:18.133Z,39.95
2019-05-03T06:14:24.408Z,36.63
2019-05-03T06:19:28.413Z,36.29
2019-05-03T06:24:32.509Z,37.86
2019-05-03T06:29:36.882Z,37.38
2019-05-03T06:34:40.940Z,42.19
2019-05-03T06:39:45.487Z,38.58
2019-05-03T06:44:49.570Z,38.81
2019-05-03T06:49:55.256Z,41.23
2019-05-03T06:55:00.252Z,40.72
2019-05-03T07:00:05.886Z,45.09
2019-05-03T07:05:10.113Z,43.74
2019-05-03T07:10:15.023Z,48.32
2019-05-03T07:15:19.158Z,49.35
2019-05-03T07:20:25.277Z,49.85
2019-05-03T07:25:28.901Z,50.14
2019-05-03T07:30:35.138Z,50.72
2019-05-03T07:35:38.771Z,52.07
2019-05-03T07:40:44.581Z,48.95
2019-05-03T07:45:48.747Z,50.11
2019-05-03T07:50:54.669Z,46.43
2019-05-03T07:55:58.673Z,48.13
2019-05-03T08:01:09.402Z,46.41
2019-05-03T08:06:09.588Z,48.47
2019-05-03T08:11:14.463Z,45.19
2019-05-03T08:16:18.948Z,46.00
2019-05-03T08:21:25.135Z,46.97
2019-05-03T08:26:29.173Z,46.80
2019-05-03T08:31:35.265Z,46.22
2019-05-03T08:36:39.108Z,46.93
2019-05-03T08:41:44.386Z,44.77
2019-05-03T08:46:48.774Z,44.20
2019-05-03T08:51:54.827Z,42.63
2019-05-03T08:56:58.527Z,40.47
2019-05-03T09:02:03.540Z,41.27
2019-05-03T09:07:08.396Z,39.27
2019-05-03T09:12:14.479Z,33.68
2019-05-03T09:17:18.284Z,32.41
2019-05-03T09:22:22.393Z,37.09
2019-05-03T09:27:26.439Z,38.14
2019-05-03T09:32:30.746Z,38.52
2019-05-03T09:37:35.443Z,36.73
2019-05-03T09:42:39.620Z,33.60
2019-05-03T09:47:44.844Z,29.96
2019-05-03T09:52:48.975Z,32.14
2019-05-03T09:57:53.032Z,38.99
2019-05-03T10:02:57.103Z,37.74
2019-05-03T10:08:01.101Z,39.34
2019-05-03T10:13:14.573Z,39.54
2019-05-03T10:18:11.424Z,35.82
2019-05-03T10:23:15.801Z,38.19
2019-05-03T10:28:19.947Z,42.13
2019-05-03T10:33:25.991Z,39.18
2019-05-03T10:38:30.062Z,35.14
2019-05-03T10:43:35.512Z,32.85
2019-05-03T10:48:40.225Z,35.55
2019-05-03T10:53:45.502Z,38.15
2019-05-03T10:58:50.354Z,38.71
2019-05-03T11:03:54.559Z,40.27
2019-05-03T11:08:58.926Z,34.91
2019-05-03T11:14:05.231Z,35.10
2019-05-03T11:19:08.757Z,37.12
2019-05-03T11:24:14.741Z,39.18
2019-05-03T11:29:18.472Z,38.24
2019-05-03T11:34:25.303Z,36.13
2019-05-03T11:39:28.497Z,35.30
2019-05-03T11:44:32.940Z,33.41
2019-05-03T11:49:37.027Z,35.81
2019-05-03T11:54:41.320Z,37.29
2019-05-03T11:59:45.378Z,35.83
2019-05-03T12:04:49.365Z,33.66
2019-05-03T12:09:54.676Z,30.07
2019-05-03T12:14:58.818Z,30.83
2019-05-03T12:20:04.669Z,34.29
2019-05-03T12:25:10.610Z,37.69
2019-05-03T12:30:15.469Z,39.34
2019-05-03T12:35:19.529Z,39.63
2019-05-03T12:40:25.433Z,39.30
2019-05-03T12:45:29.734Z,39.71
2019-05-03T12:50:34.699Z,39.27
2019-05-03T12:55:39.073Z,37.65
2019-05-03T13:00:47.947Z,35.52
2019-05-03T13:05:48.890Z,33.80
2019-05-03T13:10:52.985Z,32.24
2019-05-03T13:15:57.470Z,33.31
2019-05-03T13:21:01.728Z,34.45
2019-05-03T13:26:06.153Z,35.71
2019-05-03T13:31:10.746Z,35.10
2019-05-03T13:36:15.246Z,34.84
2019-05-03T13:41:19.370Z,35.76
2019-05-03T13:46:24.668Z,36.68
2019-05-03T13:51:28.945Z,36.54
2019-05-03T13:56:35.299Z,38.74
2019-05-03T14:01:39.484Z,38.32
2019-05-03T14:06:44.707Z,38.98
2019-05-03T14:11:48.991Z,37.41
2019-05-03T14:16:54.760Z,37.33
2019-05-03T14:21:58.854Z,40.77
2019-05-03T14:27:03.215Z,41.00
2019-05-03T14:32:07.666Z,42.10
2019-05-03T14:37:12.045Z,42.18
2019-05-03T14:42:16.165Z,41.17
2019-05-03T14:47:20.395Z,40.25
2019-05-03T14:52:25.208Z,37.70
2019-05-03T14:57:30.199Z,38.46
2019-05-03T15:02:43.550Z,40.25
2019-05-03T15:07:40.122Z,41.06
2019-05-03T15:12:45.202Z,41.79
2019-05-03T15:17:49.467Z,40.70
2019-05-03T15:22:54.845Z,44.41
2019-05-03T15:27:59.091Z,46.63
2019-05-03T15:33:04.974Z,47.61
2019-05-03T15:38:09.017Z,48.64
2019-05-03T15:43:14.928Z,48.66
2019-05-03T15:48:19.395Z,49.43
2019-05-03T15:53:24.668Z,49.80
2019-05-03T15:58:29.230Z,49.93
2019-05-03T16:03:33.386Z,48.22
2019-05-03T16:08:37.506Z,48.33
2019-05-03T16:13:41.658Z,46.57
2019-05-03T16:18:45.774Z,45.56
2019-05-03T16:23:49.873Z,44.49
2019-05-03T16:28:55.257Z,46.10
2019-05-03T16:33:59.825Z,45.99
2019-05-03T16:39:05.540Z,47.44
2019-05-03T16:44:10.623Z,44.80
2019-05-03T16:49:15.682Z,41.61
2019-05-03T16:54:19.831Z,42.09
2019-05-03T16:59:24.796Z,44.67
2019-05-03T17:04:28.993Z,46.89
2019-05-03T17:09:35.219Z,47.92
2019-05-03T17:14:39.103Z,48.59
2019-05-03T17:19:44.678Z,49.21
2019-05-03T17:24:51.629Z,49.86
2019-05-03T17:29:55.479Z,50.42
2019-05-03T17:34:59.831Z,51.19
2019-05-03T17:40:05.392Z,51.73
2019-05-03T17:45:09.683Z,52.62
2019-05-03T17:50:14.816Z,52.84
2019-05-03T17:55:19.105Z,53.64
2019-05-03T18:00:23.214Z,54.78
2019-05-03T18:05:27.435Z,54.75
2019-05-03T18:10:31.519Z,56.06
2019-05-03T18:15:35.609Z,55.89
2019-05-03T18:20:39.779Z,56.79
2019-05-03T18:25:44.681Z,56.60
2019-05-03T18:30:49.264Z,56.60
2019-05-03T18:35:55.041Z,56.02
2019-05-03T18:40:59.664Z,58.69
2019-05-03T18:46:04.935Z,58.69
2019-05-03T18:51:09.370Z,57.85
2019-05-03T18:56:14.755Z,57.32
2019-05-03T19:01:19.118Z,56.74
2019-05-03T19:06:23.336Z,57.24
2019-05-03T19:11:27.644Z,57.33
2019-05-03T19:16:31.751Z,57.61
2019-05-03T19:21:35.979Z,57.71
2019-05-03T19:26:40.603Z,56.19
2019-05-03T19:31:45.472Z,56.79
2019-05-03T19:36:50.416Z,56.62
2019-05-03T19:41:55.266Z,56.55
2019-05-03T19:46:59.883Z,57.31
2019-05-03T19:52:05.197Z,56.38
2019-05-03T19:57:09.648Z,56.98
2019-05-03T20:02:15.010Z,57.41
2019-05-03T20:07:21.608Z,56.96
2019-05-03T20:12:26.225Z,57.36
2019-05-03T20:17:30.696Z,57.71
2019-05-03T20:22:35.230Z,57.64
2019-05-03T20:27:39.504Z,57.81
2019-05-03T20:32:45.172Z,57.86
2019-05-03T20:37:49.358Z,57.79
2019-05-03T20:42:54.376Z,57.84
2019-05-03T20:47:58.786Z,58.40
2019-05-03T20:53:05.380Z,58.70
2019-05-03T20:58:11.440Z,60.06
2019-05-03T21:03:15.752Z,60.80
2019-05-03T21:08:19.903Z,60.77
2019-05-03T21:13:26.357Z,60.43
2019-05-03T21:18:29.755Z,59.98
2019-05-03T21:23:34.460Z,60.46
2019-05-03T21:28:38.682Z,59.69
2019-05-03T21:33:44.511Z,60.26
2019-05-03T21:38:48.626Z,60.27
2019-05-03T21:43:54.535Z,59.80
2019-05-03T21:48:58.650Z,61.40
2019-05-03T21:54:02.731Z,61.67
2019-05-03T21:59:07.191Z,62.85
2019-05-03T22:04:11.630Z,63.44
2019-05-03T22:09:15.620Z,64.55
2019-05-03T22:14:19.668Z,65.33
2019-05-03T22:19:25.062Z,64.65
2019-05-03T22:24:29.696Z,65.94
2019-05-03T22:29:35.531Z,66.69
2019-05-03T22:34:39.464Z,68.30
2019-05-03T22:39:45.485Z,68.75
2019-05-03T22:44:49.339Z,68.14
2019-05-03T22:49:54.743Z,67.08
2019-05-03T22:54:59.021Z,67.99
2019-05-03T23:00:06.076Z,68.12
2019-05-03T23:05:09.498Z,68.88
2019-05-03T23:10:14.811Z,68.35
2019-05-03T23:15:19.492Z,68.80
2019-05-03T23:20:25.343Z,69.30
2019-05-03T23:25:30.794Z,69.77
2019-05-03T23:30:35.263Z,69.04
2019-05-03T23:35:39.478Z,68.31
2019-05-03T23:40:44.746Z,67.93
2019-05-03T23:45:48.857Z,67.89
2019-05-03T23:50:55.149Z,67.39
2019-05-03T23:55:59.495Z,67.92
